createdAt,value
2022-08-10T00:01:54.934Z,1.17
2022-08-10T00:04:23.449Z,1.30
2022-08-10T00:06:52.978Z,1.30
2022-08-10T00:09:20.111Z,1.20
2022-08-10T00:11:46.732Z,1.30
2022-08-10T00:14:13.389Z,1.40
2022-08-10T00:16:40.175Z,1.40
2022-08-10T00:19:06.786Z,1.80
2022-08-10T00:21:33.378Z,1.35
2022-08-10T00:24:00.204Z,1.63
2022-08-10T00:26:26.816Z,1.40
2022-08-10T00:29:13.421Z,1.70
2022-08-10T00:31:58.638Z,1.75
2022-08-10T00:34:30.888Z,3.15
2022-08-10T00:39:25.946Z,1.75
2022-08-10T00:42:01.732Z,1.60
2022-08-10T00:44:41.953Z,1.80
2022-08-10T00:47:35.943Z,1.65
2022-08-10T00:49:57.267Z,1.45
2022-08-10T00:52:25.197Z,1.52
2022-08-10T00:54:52.526Z,1.45
2022-08-10T00:57:19.637Z,1.60
2022-08-10T00:59:57.976Z,1.63
2022-08-10T01:02:27.580Z,1.67
2022-08-10T01:04:59.937Z,2.00
2022-08-10T01:07:49.320Z,2.05
2022-08-10T01:10:34.607Z,1.60
2022-08-10T01:13:10.075Z,1.60
2022-08-10T01:15:57.857Z,1.42
2022-08-10T01:18:27.866Z,1.77
2022-08-10T01:21:09.819Z,1.58
2022-08-10T01:23:48.603Z,1.77
2022-08-10T01:26:45.972Z,1.80
2022-08-10T01:29:34.094Z,1.70
2022-08-10T01:32:07.284Z,1.63
2022-08-10T01:34:49.785Z,1.45
2022-08-10T01:37:20.369Z,1.80
2022-08-10T01:39:51.958Z,1.83
2022-08-10T01:42:21.885Z,1.52
2022-08-10T01:45:02.157Z,1.70
2022-08-10T01:47:53.004Z,1.73
2022-08-10T01:50:26.539Z,1.47
2022-08-10T01:52:58.444Z,1.67
2022-08-10T01:55:26.787Z,1.60
2022-08-10T01:57:54.247Z,2.25
2022-08-10T02:00:21.327Z,1.75
2022-08-10T02:02:50.557Z,1.83
2022-08-10T02:05:18.330Z,1.63
2022-08-10T02:07:48.027Z,1.65
2022-08-10T02:10:19.174Z,1.52
2022-08-10T02:12:47.035Z,1.85
2022-08-10T02:15:19.150Z,1.70
2022-08-10T02:18:00.936Z,1.70
2022-08-10T02:20:38.707Z,1.77
2022-08-10T02:23:21.071Z,1.73
2022-08-10T02:25:48.929Z,1.77
2022-08-10T02:28:27.013Z,1.88
2022-08-10T02:31:00.231Z,1.75
2022-08-10T02:33:28.609Z,2.05
2022-08-10T02:36:00.388Z,1.88
2022-08-10T02:38:58.937Z,1.60
2022-08-10T02:45:13.533Z,1.73
2022-08-10T02:45:22.325Z,1.60
2022-08-10T02:47:14.691Z,1.50
2022-08-10T02:49:51.653Z,1.92
2022-08-10T02:52:22.799Z,1.42
2022-08-10T02:54:59.837Z,1.73
2022-08-10T02:58:12.534Z,2.00
2022-08-10T03:00:27.699Z,1.75
2022-08-10T03:02:55.903Z,1.80
2022-08-10T03:05:22.945Z,2.00
2022-08-10T03:08:01.212Z,1.75
2022-08-10T03:10:31.077Z,1.95
2022-08-10T03:13:00.733Z,2.05
2022-08-10T03:15:32.656Z,2.00
2022-08-10T03:18:00.814Z,1.70
2022-08-10T03:20:39.933Z,1.65
2022-08-10T03:23:14.611Z,1.98
2022-08-10T03:25:53.043Z,1.73
2022-08-10T03:28:30.161Z,1.60
2022-08-10T03:30:59.393Z,1.95
2022-08-10T03:33:31.080Z,1.75
2022-08-10T03:36:40.397Z,1.95
2022-08-10T03:38:48.598Z,1.83
2022-08-10T03:41:17.685Z,2.20
2022-08-10T03:43:48.863Z,1.70
2022-08-10T03:46:19.638Z,2.10
2022-08-10T03:48:50.163Z,1.70
2022-08-10T03:51:19.581Z,1.83
2022-08-10T03:54:04.604Z,1.77
2022-08-10T03:56:39.890Z,1.58
2022-08-10T03:59:13.067Z,1.85
2022-08-10T04:02:44.710Z,1.98
2022-08-10T04:04:28.882Z,1.77
2022-08-10T04:06:57.914Z,1.63
2022-08-10T04:09:55.418Z,1.83
2022-08-10T04:12:26.127Z,2.00
2022-08-10T04:14:53.667Z,1.60
2022-08-10T04:18:03.325Z,1.80
2022-08-10T04:20:25.301Z,1.90
2022-08-10T04:22:53.931Z,1.50
2022-08-10T04:25:24.125Z,1.67
2022-08-10T04:27:52.323Z,1.90
2022-08-10T04:30:19.161Z,1.80
2022-08-10T04:32:48.693Z,1.80
2022-08-10T04:35:18.716Z,2.08
2022-08-10T04:37:48.121Z,1.63
2022-08-10T04:40:28.234Z,1.55
2022-08-10T04:43:10.461Z,1.85
2022-08-10T04:45:49.246Z,2.15
2022-08-10T04:48:42.658Z,2.00
2022-08-10T04:51:17.492Z,1.80
2022-08-10T04:54:04.863Z,1.70
2022-08-10T04:56:38.185Z,1.98
2022-08-10T04:59:07.149Z,1.65
2022-08-10T05:02:13.543Z,1.52
2022-08-10T05:04:35.364Z,1.65
2022-08-10T05:07:05.163Z,1.55
2022-08-10T05:09:31.748Z,1.88
2022-08-10T05:11:58.361Z,2.15
2022-08-10T05:14:24.980Z,1.50
2022-08-10T05:16:51.582Z,1.55
2022-08-10T05:19:21.157Z,2.53
2022-08-10T05:22:05.692Z,1.55
2022-08-10T05:24:32.444Z,1.60
2022-08-10T05:27:09.657Z,1.83
2022-08-10T05:29:37.085Z,2.15
2022-08-10T05:32:04.125Z,1.50
2022-08-10T05:34:30.834Z,1.77
2022-08-10T05:36:58.208Z,1.55
2022-08-10T05:39:25.367Z,1.70
2022-08-10T05:42:01.594Z,2.03
2022-08-10T05:44:29.613Z,1.70
2022-08-10T05:46:56.384Z,2.13
2022-08-10T05:49:23.031Z,1.70
2022-08-10T05:51:49.949Z,1.50
2022-08-10T05:54:16.737Z,1.33
2022-08-10T05:56:54.105Z,1.60
2022-08-10T06:00:34.195Z,1.50
2022-08-10T06:02:35.541Z,1.60
2022-08-10T06:05:12.142Z,1.67
2022-08-10T06:07:49.106Z,1.67
2022-08-10T06:10:28.614Z,1.50
2022-08-10T06:13:30.313Z,1.50
2022-08-10T06:18:30.868Z,1.85
2022-08-10T06:20:57.921Z,1.60
2022-08-10T06:23:28.331Z,1.48
2022-08-10T06:26:11.376Z,1.60
2022-08-10T06:29:02.313Z,1.23
2022-08-10T06:31:46.749Z,1.63
2022-08-10T06:34:15.855Z,1.38
2022-08-10T06:36:43.998Z,1.15
2022-08-10T06:39:31.839Z,1.30
2022-08-10T06:42:16.535Z,1.38
2022-08-10T06:44:52.552Z,1.35
2022-08-10T06:47:23.146Z,1.40
2022-08-10T06:49:54.331Z,1.02
2022-08-10T06:52:52.394Z,1.13
2022-08-10T06:55:22.190Z,1.50
2022-08-10T06:58:08.359Z,1.38
2022-08-10T07:00:41.381Z,1.40
2022-08-10T07:03:11.482Z,1.30
2022-08-10T07:05:45.911Z,1.10
2022-08-10T07:08:20.526Z,1.15
2022-08-10T07:10:48.841Z,1.92
2022-08-10T07:14:15.859Z,0.95
2022-08-10T07:16:08.341Z,0.73
2022-08-10T07:34:07.261Z,1.17
2022-08-10T07:36:36.549Z,1.15
2022-08-10T07:39:05.334Z,0.93
2022-08-10T07:41:33.295Z,0.80
2022-08-10T07:44:04.201Z,0.95
2022-08-10T07:46:33.472Z,0.95
2022-08-10T07:49:15.490Z,1.00
2022-08-10T07:51:54.726Z,1.02
2022-08-10T07:54:24.797Z,0.88
2022-08-10T07:56:53.884Z,0.90
2022-08-10T07:59:25.547Z,1.10
2022-08-10T08:01:55.848Z,0.82
2022-08-10T08:04:24.999Z,1.05
2022-08-10T08:06:53.639Z,0.80
2022-08-10T08:09:21.121Z,0.70
2022-08-10T08:11:49.499Z,0.90
2022-08-10T08:14:17.176Z,1.00
2022-08-10T08:16:48.003Z,0.80
2022-08-10T08:19:26.568Z,0.70
2022-08-10T08:24:13.656Z,0.70
2022-08-10T08:24:43.458Z,0.60
2022-08-10T08:27:15.135Z,0.75
2022-08-10T08:29:44.637Z,0.70
2022-08-10T08:32:12.545Z,1.08
2022-08-10T08:34:42.402Z,0.75
2022-08-10T08:37:11.224Z,0.63
2022-08-10T08:39:38.199Z,0.80
2022-08-10T08:42:15.466Z,0.60
2022-08-10T08:44:56.958Z,0.77
2022-08-10T08:48:03.256Z,0.80
2022-08-10T08:50:59.689Z,1.38
2022-08-10T08:54:02.092Z,0.63
2022-08-10T08:56:28.626Z,0.43
2022-08-10T08:58:58.380Z,0.70
2022-08-10T09:01:49.569Z,0.50
2022-08-10T09:04:28.339Z,0.60
2022-08-10T09:07:59.672Z,0.43
2022-08-10T09:10:09.371Z,0.73
2022-08-10T09:12:51.585Z,0.60
2022-08-10T09:15:39.568Z,0.60
2022-08-10T09:18:16.749Z,0.70
2022-08-10T09:21:01.375Z,0.55
2022-08-10T09:24:01.665Z,0.70
2022-08-10T09:26:42.800Z,0.55
2022-08-10T09:29:25.785Z,0.68
2022-08-10T09:36:15.448Z,1.52
2022-08-10T09:36:22.445Z,0.50
2022-08-10T09:38:01.735Z,0.70
2022-08-10T09:41:00.338Z,0.73
2022-08-10T09:43:53.653Z,0.55
2022-08-10T09:47:13.909Z,0.80
2022-08-10T09:50:18.064Z,0.50
2022-08-10T09:52:58.951Z,0.55
2022-08-10T09:56:17.324Z,0.43
2022-08-10T09:58:45.579Z,0.77
2022-08-10T10:02:03.522Z,0.70
2022-08-10T10:04:26.050Z,0.40
2022-08-10T10:07:06.451Z,0.80
2022-08-10T10:10:08.911Z,0.60
2022-08-10T10:12:35.502Z,0.80
2022-08-10T10:15:24.758Z,0.63
2022-08-10T10:18:10.952Z,0.70
2022-08-10T10:20:40.719Z,0.68
2022-08-10T10:23:13.170Z,0.47
2022-08-10T10:25:50.721Z,0.50
2022-08-10T10:31:54.653Z,0.40
2022-08-10T10:34:41.499Z,0.65
2022-08-10T10:37:10.522Z,0.63
2022-08-10T10:39:42.255Z,0.57
2022-08-10T10:43:04.263Z,0.50
2022-08-10T10:46:01.864Z,0.60
2022-08-10T10:48:31.447Z,0.60
2022-08-10T10:51:31.809Z,0.70
2022-08-10T10:56:14.714Z,0.57
2022-08-10T10:58:28.609Z,0.50
2022-08-10T11:01:14.917Z,0.57
2022-08-10T11:04:10.670Z,0.38
2022-08-10T11:07:15.861Z,0.50
2022-08-10T11:10:05.188Z,0.80
2022-08-10T11:12:43.593Z,0.47
2022-08-10T11:15:31.390Z,0.38
2022-08-10T11:18:08.390Z,0.65
2022-08-10T11:20:49.302Z,0.40
2022-08-10T11:23:28.538Z,0.68
2022-08-10T11:26:01.352Z,0.50
2022-08-10T11:28:36.859Z,0.47
2022-08-10T11:31:09.913Z,0.38
2022-08-10T11:37:04.043Z,0.50
2022-08-10T11:39:55.104Z,0.57
2022-08-10T11:42:35.688Z,0.30
2022-08-10T11:45:14.710Z,0.50
2022-08-10T11:47:52.900Z,0.50
2022-08-10T11:50:31.214Z,0.98
2022-08-10T11:53:06.859Z,0.77
2022-08-10T11:55:34.307Z,0.43
2022-08-10T11:58:26.693Z,0.63
2022-08-10T12:00:59.602Z,1.02
2022-08-10T12:03:32.645Z,0.63
2022-08-10T12:06:04.600Z,0.77
2022-08-10T12:10:05.208Z,0.60
2022-08-10T12:11:26.349Z,0.60
2022-08-10T12:14:22.307Z,0.40
2022-08-10T12:16:52.791Z,0.95
2022-08-10T12:20:01.652Z,0.65
2022-08-10T12:22:48.889Z,0.77
2022-08-10T12:25:56.463Z,0.50
2022-08-10T12:28:22.527Z,0.50
2022-08-10T12:31:12.313Z,0.35
2022-08-10T12:34:11.729Z,0.52
2022-08-10T12:36:42.762Z,0.73
2022-08-10T12:39:13.872Z,0.47
2022-08-10T12:42:10.848Z,0.60
2022-08-10T12:45:05.765Z,0.40
2022-08-10T12:47:44.131Z,0.68
2022-08-10T12:50:32.921Z,0.47
2022-08-10T12:53:23.438Z,0.50
2022-08-10T12:55:50.746Z,0.77
2022-08-10T12:58:57.187Z,0.50
2022-08-10T13:01:17.197Z,0.50
2022-08-10T13:04:22.592Z,0.40
2022-08-10T13:06:44.464Z,0.45
2022-08-10T13:09:14.072Z,0.50
2022-08-10T13:12:35.355Z,0.47
2022-08-10T13:14:59.795Z,0.45
2022-08-10T13:17:40.156Z,0.45
2022-08-10T13:20:26.309Z,0.47
2022-08-10T13:22:57.102Z,0.40
2022-08-10T13:25:31.777Z,0.50
2022-08-10T13:28:37.800Z,0.60
2022-08-10T13:30:55.087Z,0.30
2022-08-10T13:34:39.726Z,0.40
2022-08-10T13:36:15.887Z,0.50
2022-08-10T13:38:48.613Z,0.30
2022-08-10T13:41:17.106Z,0.45
2022-08-10T13:43:52.420Z,0.40
2022-08-10T13:46:22.818Z,0.65
2022-08-10T13:48:53.418Z,0.30
2022-08-10T13:51:54.434Z,0.55
2022-08-10T13:54:14.654Z,0.50
2022-08-10T13:56:44.298Z,0.43
2022-08-10T13:59:13.076Z,0.55
2022-08-10T14:01:48.310Z,0.30
2022-08-10T14:04:15.775Z,0.70
2022-08-10T14:06:52.144Z,0.47
2022-08-10T14:09:26.281Z,0.55
2022-08-10T14:11:55.340Z,0.45
2022-08-10T14:14:24.543Z,0.40
2022-08-10T14:16:52.780Z,0.50
2022-08-10T14:19:26.467Z,0.70
2022-08-10T14:21:54.974Z,0.50
2022-08-10T14:24:27.293Z,0.45
2022-08-10T14:27:23.689Z,0.73
2022-08-10T14:29:55.796Z,0.70
2022-08-10T14:32:27.209Z,0.45
2022-08-10T14:36:15.347Z,0.40
2022-08-10T14:37:51.402Z,0.43
2022-08-10T14:40:21.023Z,0.40
2022-08-10T14:42:56.218Z,0.50
2022-08-10T14:45:41.909Z,0.45
2022-08-10T14:48:14.643Z,0.40
2022-08-10T14:50:54.848Z,0.40
2022-08-10T14:53:27.331Z,0.50
2022-08-10T14:56:02.252Z,0.38
2022-08-10T14:58:33.003Z,0.30
2022-08-10T15:01:02.759Z,0.30
2022-08-10T15:04:00.837Z,0.30
2022-08-10T15:09:19.407Z,0.30
2022-08-10T15:12:11.747Z,0.57
2022-08-10T15:14:43.663Z,0.77
2022-08-10T15:17:16.395Z,0.47
2022-08-10T15:20:03.567Z,0.47
2022-08-10T15:22:38.636Z,0.50
2022-08-10T15:25:18.330Z,0.57
2022-08-10T15:27:54.258Z,0.40
2022-08-10T15:30:29.996Z,0.50
2022-08-10T15:33:21.617Z,0.50
2022-08-10T15:36:25.172Z,0.40
2022-08-10T15:39:00.848Z,0.40
2022-08-10T15:41:58.661Z,0.63
2022-08-10T15:44:43.597Z,0.40
2022-08-10T15:47:46.355Z,0.30
2022-08-10T15:50:31.577Z,0.50
2022-08-10T15:53:06.945Z,0.50
2022-08-10T15:55:45.657Z,0.55
2022-08-10T15:58:40.184Z,0.40
2022-08-10T16:02:14.908Z,0.40
2022-08-10T16:04:35.393Z,0.85
2022-08-10T16:07:10.459Z,0.70
2022-08-10T16:10:23.582Z,0.40
2022-08-10T16:12:59.181Z,1.17
2022-08-10T16:15:29.050Z,0.50
2022-08-10T16:18:01.780Z,0.40
2022-08-10T16:20:33.345Z,0.50
2022-08-10T16:23:41.844Z,0.50
2022-08-10T16:26:14.878Z,0.60
2022-08-10T16:28:48.515Z,0.30
2022-08-10T16:31:20.936Z,0.45
2022-08-10T16:33:54.943Z,0.60
2022-08-10T16:36:28.915Z,0.52
2022-08-10T16:38:57.542Z,0.30
2022-08-10T16:42:04.154Z,0.88
2022-08-10T16:44:18.483Z,0.40
2022-08-10T16:49:15.557Z,0.32
2022-08-10T16:51:47.753Z,0.60
2022-08-10T16:54:22.370Z,0.68
2022-08-10T16:56:53.251Z,0.50
2022-08-10T16:59:24.784Z,0.50
2022-08-10T17:01:54.163Z,0.50
2022-08-10T17:04:23.338Z,0.50
2022-08-10T17:06:56.933Z,0.40
2022-08-10T17:09:33.028Z,0.63
2022-08-10T17:12:05.870Z,0.50
2022-08-10T17:14:32.795Z,0.80
2022-08-10T17:17:05.286Z,0.40
2022-08-10T17:19:43.595Z,0.60
2022-08-10T17:22:25.186Z,0.35
2022-08-10T17:25:08.104Z,0.40
2022-08-10T17:28:04.205Z,0.40
2022-08-10T17:30:33.891Z,0.57
2022-08-10T17:33:12.404Z,0.60
2022-08-10T17:35:42.320Z,0.70
2022-08-10T17:38:30.710Z,0.57
2022-08-10T17:41:12.300Z,0.50
2022-08-10T17:43:58.597Z,0.50
2022-08-10T17:46:38.457Z,0.80
2022-08-10T17:49:07.962Z,0.50
2022-08-10T17:51:36.868Z,0.55
2022-08-10T17:54:09.096Z,0.60
2022-08-10T17:56:37.808Z,0.70
2022-08-10T17:59:16.688Z,0.82
2022-08-10T18:01:58.566Z,0.60
2022-08-10T18:04:32.010Z,0.70
2022-08-10T18:07:02.416Z,0.60
2022-08-10T18:09:41.372Z,0.50
2022-08-10T18:12:17.902Z,0.50
2022-08-10T18:14:48.277Z,0.40
2022-08-10T18:17:20.531Z,0.40
2022-08-10T18:19:53.178Z,0.80
2022-08-10T18:22:21.622Z,1.02
2022-08-10T18:24:50.599Z,0.90
2022-08-10T18:27:19.104Z,0.95
2022-08-10T18:29:52.323Z,0.70
2022-08-10T18:32:21.926Z,0.65
2022-08-10T18:34:52.853Z,0.68
2022-08-10T18:37:22.868Z,0.70
2022-08-10T18:39:54.379Z,0.52
2022-08-10T18:42:39.176Z,0.52
2022-08-10T18:45:09.740Z,0.52
2022-08-10T18:48:05.024Z,0.50
2022-08-10T18:50:33.469Z,0.50
2022-08-10T18:53:04.414Z,0.60
2022-08-10T18:58:37.789Z,0.40
2022-08-10T19:01:30.116Z,0.40
2022-08-10T19:04:13.951Z,0.50
2022-08-10T19:07:05.207Z,0.30
2022-08-10T19:12:44.231Z,0.50
2022-08-10T19:15:33.129Z,0.50
2022-08-10T19:18:25.829Z,0.50
2022-08-10T19:21:04.371Z,0.40
2022-08-10T19:23:34.436Z,0.50
2022-08-10T19:26:41.078Z,0.52
2022-08-10T19:30:09.857Z,0.40
2022-08-10T19:32:26.618Z,0.57
2022-08-10T19:35:17.067Z,0.47
2022-08-10T19:38:16.702Z,0.60
2022-08-10T19:41:17.465Z,0.50
2022-08-10T19:44:06.568Z,0.47
2022-08-10T19:46:42.504Z,0.52
2022-08-10T19:49:31.101Z,0.60
2022-08-10T19:52:32.654Z,0.85
2022-08-10T19:55:15.032Z,0.57
2022-08-10T19:58:19.356Z,0.50
2022-08-10T20:01:19.865Z,0.50
2022-08-10T20:03:53.752Z,0.70
2022-08-10T20:06:47.241Z,0.60
2022-08-10T20:09:27.357Z,0.57
2022-08-10T20:12:04.397Z,0.50
2022-08-10T20:14:44.688Z,0.73
2022-08-10T20:17:29.526Z,1.50
2022-08-10T20:20:31.946Z,0.70
2022-08-10T20:23:20.961Z,0.75
2022-08-10T20:25:55.394Z,0.68
2022-08-10T20:28:35.922Z,0.68
2022-08-10T20:31:24.022Z,1.13
2022-08-10T20:34:05.445Z,0.47
2022-08-10T20:36:36.877Z,0.50
2022-08-10T20:39:04.363Z,0.63
2022-08-10T20:41:59.808Z,0.73
2022-08-10T20:44:47.047Z,0.70
2022-08-10T20:47:54.350Z,1.15
2022-08-10T20:50:21.266Z,0.70
2022-08-10T20:52:51.795Z,0.73
2022-08-10T20:55:22.323Z,0.93
2022-08-10T20:57:57.835Z,0.90
2022-08-10T21:00:36.921Z,0.70
2022-08-10T21:03:25.077Z,0.50
2022-08-10T21:06:07.880Z,0.60
2022-08-10T21:08:53.386Z,0.82
2022-08-10T21:11:47.877Z,0.93
2022-08-10T21:14:33.664Z,0.73
2022-08-10T21:17:21.983Z,0.50
2022-08-10T21:20:14.726Z,0.80
2022-08-10T21:22:48.308Z,0.90
2022-08-10T21:25:17.786Z,0.70
2022-08-10T21:28:15.060Z,0.60
2022-08-10T21:30:53.680Z,0.88
2022-08-10T21:33:45.076Z,0.90
2022-08-10T21:36:28.138Z,0.90
2022-08-10T21:39:41.942Z,0.85
2022-08-10T21:42:40.990Z,0.88
2022-08-10T21:45:58.620Z,0.63
2022-08-10T21:48:57.091Z,0.70
2022-08-10T21:52:04.079Z,0.70
2022-08-10T21:55:08.772Z,1.10
2022-08-10T21:58:15.483Z,1.02
2022-08-10T22:01:09.232Z,0.80
2022-08-10T22:03:59.499Z,0.90
2022-08-10T22:06:52.702Z,0.70
2022-08-10T22:09:48.577Z,0.80
2022-08-10T22:12:38.236Z,1.00
2022-08-10T22:16:03.527Z,1.00
2022-08-10T22:19:01.938Z,0.90
2022-08-10T22:21:48.314Z,1.15
2022-08-10T22:24:56.588Z,0.70
2022-08-10T22:27:54.352Z,0.82
2022-08-10T22:30:57.890Z,0.75
2022-08-10T22:34:09.424Z,0.80
2022-08-10T22:37:18.053Z,0.90
2022-08-10T22:40:28.173Z,1.05
2022-08-10T22:43:15.934Z,0.75
2022-08-10T22:46:24.802Z,0.90
2022-08-10T22:49:00.534Z,1.10
2022-08-10T22:51:54.190Z,1.20
2022-08-10T22:54:52.663Z,0.80
2022-08-10T22:57:38.862Z,1.10
2022-08-10T23:00:14.283Z,1.13
2022-08-10T23:02:49.162Z,1.00
2022-08-10T23:05:16.730Z,1.20
2022-08-10T23:07:54.736Z,0.95
2022-08-10T23:10:24.534Z,1.02
2022-08-10T23:13:37.805Z,1.00
2022-08-10T23:16:36.637Z,1.38
2022-08-10T23:19:26.907Z,1.00
2022-08-10T23:22:05.267Z,1.00
2022-08-10T23:24:53.246Z,1.40
2022-08-10T23:27:39.328Z,1.02
2022-08-10T23:30:17.907Z,1.00
2022-08-10T23:32:48.705Z,1.02
2022-08-10T23:36:30.597Z,1.20
2022-08-10T23:38:07.429Z,0.90
2022-08-10T23:40:36.174Z,0.85
2022-08-10T23:43:04.792Z,0.90
2022-08-10T23:45:52.628Z,1.00
2022-08-10T23:48:29.645Z,1.10
2022-08-10T23:51:00.822Z,1.40
2022-08-10T23:53:31.649Z,1.10
2022-08-10T23:56:02.075Z,1.38
2022-08-10T23:58:35.344Z,1.25
